Time;durP1;ratioP1;P1;durP2;ratioP2;P2;SDS_P1;SDS_P2;PMS_P1;PMS_P2;Temp;Humidity;BMP_temperature;BMP_pressure;BME280_temperature;BME280_humidity;BME280_pressure;Samples;Min_cycle;Max_cycle;Signal;HPM_P1;HPM_P2
2022/03/20 00:01:53;;;;;;;;;;;;;;;3.30;79.08;99738.38;10270705;28;20326;-80
2022/03/20 00:06:55;;;;;;;;;;;;;;;3.34;83.14;99747.47;10307787;28;19914;-78
2022/03/20 00:11:56;;;;;;;;;;;;;;;3.22;82.27;99738.78;10291490;28;19941;-79
2022/03/20 00:16:56;;;;;;;;;;;;;;;3.19;85.00;99745.34;10295264;28;19936;-79
2022/03/20 00:21:57;;;;;;;;;;;;;;;3.07;86.70;99742.75;10274683;28;19941;-78
2022/03/20 00:26:58;;;;;;;;;;;;;;;2.99;86.34;99739.66;10335164;28;19957;-80
2022/03/20 00:31:59;;;;;;;;;;;;;;;2.83;91.09;99734.09;10333916;28;20317;-78
2022/03/20 00:36:59;;;;;;;;;;;;;;;2.83;94.36;99739.41;10330030;28;19930;-79
2022/03/20 00:42:00;;;;;;;;;;;;;;;2.93;90.90;99740.63;10354248;28;20395;-78
2022/03/20 00:47:00;;;;;;;;;;;;;;;2.97;92.40;99733.81;10338266;28;20004;-79
2022/03/20 00:52:01;;;;;;;;;;;;;;;2.77;95.33;99735.03;10340644;28;20411;-78
2022/03/20 00:57:01;;;;;;;;;;;;;;;2.72;95.85;99734.13;10323014;28;19993;-78
2022/03/20 01:02:02;;;;;;;;;;;;;;;2.77;96.84;99735.03;10290034;28;20029;-78
2022/03/20 01:07:03;;;;;;;;;;;;;;;2.68;99.19;99733.00;10332336;28;19977;-78
2022/03/20 01:12:08;;;;;;;;;;;;;;;2.63;98.92;99735.53;10301502;28;20392;-79
2022/03/20 01:17:08;;;;;;;;;;;;;;;2.72;98.76;99732.28;10326177;28;20357;-79
2022/03/20 01:22:09;;;;;;;;;;;;;;;2.51;100.00;99728.41;10287372;28;19930;-78
2022/03/20 01:27:09;;;;;;;;;;;;;;;2.50;100.00;99721.50;10291768;28;19993;-78
2022/03/20 01:32:10;;;;;;;;;;;;;;;2.45;100.00;99724.03;10267930;28;19942;-77
2022/03/20 01:37:10;;;;;;;;;;;;;;;2.41;100.00;99722.13;10306290;28;20592;-77
2022/03/20 01:42:13;;;;;;;;;;;;;;;2.26;100.00;99715.44;10299229;28;20330;-78
2022/03/20 01:47:16;;;;;;;;;;;;;;;2.49;100.00;99714.59;10287130;28;19926;-77
2022/03/20 01:52:26;;;;;;;;;;;;;;;2.43;100.00;99712.88;10262978;28;19938;-78
2022/03/20 01:57:31;;;;;;;;;;;;;;;2.41;100.00;99711.50;10275171;28;20700;-78
2022/03/20 02:02:32;;;;;;;;;;;;;;;2.26;100.00;99712.81;10296078;28;19930;-80
2022/03/20 02:07:34;;;;;;;;;;;;;;;2.33;100.00;99717.97;10299974;28;19949;-79
2022/03/20 02:12:35;;;;;;;;;;;;;;;2.31;100.00;99708.66;10281276;28;19981;-75
2022/03/20 02:17:37;;;;;;;;;;;;;;;2.29;100.00;99714.19;10284361;28;19926;-76
2022/03/20 02:22:38;;;;;;;;;;;;;;;2.13;100.00;99712.25;10287644;28;19949;-79
2022/03/20 02:27:41;;;;;;;;;;;;;;;2.03;100.00;99714.69;10287022;28;19985;-78
2022/03/20 02:32:43;;;;;;;;;;;;;;;2.08;100.00;99717.44;10314652;28;20013;-78
2022/03/20 02:37:46;;;;;;;;;;;;;;;2.14;100.00;99711.22;10297034;28;20441;-78
2022/03/20 02:42:48;;;;;;;;;;;;;;;2.26;100.00;99714.66;10269537;28;20017;-78
2022/03/20 02:47:49;;;;;;;;;;;;;;;2.10;100.00;99708.22;10288097;28;19934;-79
2022/03/20 02:52:51;;;;;;;;;;;;;;;2.15;100.00;99712.81;10283588;28;19930;-79
2022/03/20 02:57:53;;;;;;;;;;;;;;;1.95;100.00;99721.94;10301650;28;19926;-78
2022/03/20 03:02:55;;;;;;;;;;;;;;;1.93;100.00;99718.72;10274113;28;20020;-77
2022/03/20 03:13:18;;;;;;;;;;;;;;;2.14;100.00;99722.63;10297418;28;19930;-77
2022/03/20 03:18:21;;;;;;;;;;;;;;;2.09;100.00;99729.63;10277792;28;20033;-76
2022/03/20 03:23:21;;;;;;;;;;;;;;;2.09;100.00;99735.72;10308971;28;19962;-79
2022/03/20 03:28:23;;;;;;;;;;;;;;;1.98;100.00;99737.34;10356470;28;19926;-79
2022/03/20 03:33:24;;;;;;;;;;;;;;;1.94;100.00;99738.88;10329177;28;20022;-77
2022/03/20 03:38:35;;;;;;;;;;;;;;;1.93;100.00;99737.25;10318447;28;20109;-77
2022/03/20 03:43:38;;;;;;;;;;;;;;;1.79;100.00;99741.16;10312216;28;20645;-77
2022/03/20 03:48:40;;;;;;;;;;;;;;;1.83;100.00;99742.31;10297712;28;19969;-78
2022/03/20 03:53:41;;;;;;;;;;;;;;;1.81;100.00;99754.97;10328429;28;20756;-77
2022/03/20 03:58:41;;;;;;;;;;;;;;;1.78;100.00;99751.97;10350177;28;19929;-76
2022/03/20 04:03:41;;;;;;;;;;;;;;;1.67;100.00;99748.28;10334541;28;19933;-76
2022/03/20 04:08:42;;;;;;;;;;;;;;;1.63;100.00;99747.13;10334569;28;19926;-78
2022/03/20 04:13:43;;;;;;;;;;;;;;;1.49;100.00;99751.81;10308941;28;19929;-78
2022/03/20 04:18:46;;;;;;;;;;;;;;;1.35;100.00;99745.09;10355029;28;19940;-78
2022/03/20 04:23:48;;;;;;;;;;;;;;;1.34;100.00;99739.00;10318348;28;19950;-79
2022/03/20 04:28:51;;;;;;;;;;;;;;;1.33;100.00;99744.53;10285042;28;20434;-78
2022/03/20 04:33:56;;;;;;;;;;;;;;;1.33;100.00;99749.81;10279775;28;19930;-79
2022/03/20 04:38:59;;;;;;;;;;;;;;;1.31;100.00;99755.34;10282034;28;19945;-77
2022/03/20 04:44:01;;;;;;;;;;;;;;;1.27;100.00;99764.75;10289735;28;20036;-78
2022/03/20 04:59:42;;;;;;;;;;;;;;;1.10;100.00;99772.53;10285586;28;19956;-78
2022/03/20 05:04:43;;;;;;;;;;;;;;;1.10;100.00;99783.09;10281522;28;19926;-77
2022/03/20 05:15:02;;;;;;;;;;;;;;;1.22;100.00;99792.91;10283340;28;19933;-77
2022/03/20 05:20:04;;;;;;;;;;;;;;;1.21;100.00;99784.19;10280071;28;19925;-76
2022/03/20 05:25:13;;;;;;;;;;;;;;;1.05;100.00;99793.53;10272020;28;19926;-77
2022/03/20 05:30:15;;;;;;;;;;;;;;;1.05;100.00;99798.00;10256167;28;19930;-78
2022/03/20 05:35:16;;;;;;;;;;;;;;;1.16;100.00;99804.38;10272015;28;20067;-78
2022/03/20 05:40:18;;;;;;;;;;;;;;;1.30;100.00;99801.34;10302407;28;19926;-80
2022/03/20 05:45:19;;;;;;;;;;;;;;;1.27;100.00;99799.13;10304090;28;20305;-76
2022/03/20 05:50:19;;;;;;;;;;;;;;;1.28;100.00;99794.63;10266552;28;19929;-75
2022/03/20 05:58:01;;;;;;;;;;;;;;;1.49;100.00;99796.78;10302205;28;19930;-77
2022/03/20 06:00:42;;;;;;;;;;;;;;;1.69;100.00;99794.66;10264583;28;19934;-78
2022/03/20 06:05:43;;;;;;;;;;;;;;;1.86;100.00;99792.16;10295107;28;19936;-77
2022/03/20 06:10:43;;;;;;;;;;;;;;;2.08;100.00;99791.59;10289299;28;19936;-77
2022/03/20 06:15:46;;;;;;;;;;;;;;;2.28;100.00;99797.31;10290766;28;19933;-77
2022/03/20 06:20:47;;;;;;;;;;;;;;;2.40;100.00;99806.09;10298583;28;19981;-78
2022/03/20 06:25:51;;;;;;;;;;;;;;;2.66;100.00;99817.25;10292266;28;19988;-76
2022/03/20 06:30:52;;;;;;;;;;;;;;;2.83;100.00;99826.06;10244396;28;19931;-76
2022/03/20 06:35:54;;;;;;;;;;;;;;;3.05;100.00;99824.41;10274338;28;19941;-77
2022/03/20 06:40:54;;;;;;;;;;;;;;;3.32;100.00;99831.81;10293679;28;19931;-75
2022/03/20 06:45:55;;;;;;;;;;;;;;;3.46;100.00;99833.13;10285037;28;19930;-78
2022/03/20 06:50:57;;;;;;;;;;;;;;;3.71;100.00;99846.84;10292320;28;19914;-79
2022/03/20 06:55:57;;;;;;;;;;;;;;;4.15;100.00;99848.91;10314896;28;19930;-83
2022/03/20 07:00:57;;;;;;;;;;;;;;;4.70;100.00;99850.78;10286194;28;20034;-78
2022/03/20 07:05:59;;;;;;;;;;;;;;;4.56;99.94;99850.31;10286886;28;19977;-78
2022/03/20 07:11:01;;;;;;;;;;;;;;;4.72;100.00;99857.44;10297490;28;20745;-82
2022/03/20 07:16:10;;;;;;;;;;;;;;;4.77;98.46;99864.72;10267892;28;19924;-79
2022/03/20 07:21:12;;;;;;;;;;;;;;;4.92;99.99;99880.06;10295281;28;19930;-77
2022/03/20 07:31:31;;;;;;;;;;;;;;;4.99;98.18;99872.69;10312616;28;19941;-79
2022/03/20 07:36:31;;;;;;;;;;;;;;;4.98;95.62;99879.88;10334432;28;19921;-79
2022/03/20 07:41:32;;;;;;;;;;;;;;;5.39;94.57;99881.19;10312369;28;19929;-78
2022/03/20 07:46:32;;;;;;;;;;;;;;;5.64;94.45;99882.50;10336608;28;19937;-79
2022/03/20 07:51:33;;;;;;;;;;;;;;;5.67;89.48;99879.34;10324859;28;19929;-78
2022/03/20 07:56:37;;;;;;;;;;;;;;;5.68;91.00;99878.28;10338354;28;19926;-79
2022/03/20 08:01:38;;;;;;;;;;;;;;;5.97;89.10;99887.66;10345595;28;19943;-79
2022/03/20 08:06:39;;;;;;;;;;;;;;;6.18;87.46;99891.28;10345896;28;19961;-83
2022/03/20 08:11:42;;;;;;;;;;;;;;;6.52;85.00;99891.84;10342007;28;20019;-79
2022/03/20 08:16:43;;;;;;;;;;;;;;;6.62;84.12;99876.94;10345660;28;20380;-79
2022/03/20 08:21:45;;;;;;;;;;;;;;;6.83;78.16;99886.69;10320055;28;19936;-80
2022/03/20 08:26:46;;;;;;;;;;;;;;;6.85;76.33;99871.19;10319813;28;19937;-79
2022/03/20 08:31:47;;;;;;;;;;;;;;;7.22;77.46;99879.13;10296764;28;19930;-78
2022/03/20 08:36:47;;;;;;;;;;;;;;;7.25;70.07;99867.13;10346631;28;19936;-79
2022/03/20 08:41:50;;;;;;;;;;;;;;;7.57;69.00;99872.28;10344081;28;19972;-78
2022/03/20 08:46:50;;;;;;;;;;;;;;;7.56;64.65;99873.34;10319883;28;19987;-78
2022/03/20 08:51:52;;;;;;;;;;;;;;;7.68;63.52;99874.75;10296058;28;20349;-79
2022/03/20 08:56:52;;;;;;;;;;;;;;;7.75;60.97;99868.31;10352686;28;19930;-78
2022/03/20 09:01:53;;;;;;;;;;;;;;;7.88;58.98;99870.50;10348083;28;19960;-79
2022/03/20 09:06:54;;;;;;;;;;;;;;;8.24;61.47;99885.47;10321906;28;19926;-76
2022/03/20 09:11:54;;;;;;;;;;;;;;;8.46;57.54;99871.84;10333441;28;19958;-77
2022/03/20 09:22:16;;;;;;;;;;;;;;;8.66;57.29;99872.88;10346024;28;19985;-78
2022/03/20 09:27:16;;;;;;;;;;;;;;;8.62;56.65;99880.66;10281881;28;19930;-77
2022/03/20 09:32:17;;;;;;;;;;;;;;;8.87;55.99;99884.34;10299187;28;19930;-77
2022/03/20 09:37:17;;;;;;;;;;;;;;;8.98;57.95;99881.38;10270502;28;19930;-80
2022/03/20 09:42:19;;;;;;;;;;;;;;;9.20;54.98;99891.72;10295008;28;19929;-78
2022/03/20 09:47:19;;;;;;;;;;;;;;;9.44;52.86;99889.22;10280830;28;19930;-79
2022/03/20 09:52:19;;;;;;;;;;;;;;;9.64;53.02;99881.06;10297156;28;19934;-79
2022/03/20 09:57:25;;;;;;;;;;;;;;;9.76;53.04;99882.59;10296684;28;19965;-79
2022/03/20 10:02:32;;;;;;;;;;;;;;;10.02;53.71;99873.31;10248537;28;20436;-78
2022/03/20 10:07:35;;;;;;;;;;;;;;;10.37;53.53;99871.47;10294580;28;20306;-77
2022/03/20 10:12:36;;;;;;;;;;;;;;;10.53;51.24;99870.25;10286462;28;19973;-78
2022/03/20 10:17:37;;;;;;;;;;;;;;;10.72;52.54;99865.75;10265182;28;19933;-79
2022/03/20 10:22:38;;;;;;;;;;;;;;;10.86;51.75;99867.75;10278208;28;19930;-78
2022/03/20 10:27:39;;;;;;;;;;;;;;;11.14;49.76;99871.44;10300895;28;19930;-79
2022/03/20 10:32:47;;;;;;;;;;;;;;;11.46;50.68;99863.53;10274288;28;19926;-78
2022/03/20 10:37:51;;;;;;;;;;;;;;;11.54;49.63;99852.13;10273646;28;19930;-78
2022/03/20 10:43:08;;;;;;;;;;;;;;;11.87;48.64;99862.97;10281620;28;19930;-79
2022/03/20 10:48:10;;;;;;;;;;;;;;;12.17;49.79;99856.31;10270568;28;19926;-79
2022/03/20 10:53:11;;;;;;;;;;;;;;;12.46;47.77;99864.97;10256204;28;19927;-79
2022/03/20 10:58:22;;;;;;;;;;;;;;;12.61;46.50;99861.19;10300269;28;19926;-79
2022/03/20 11:03:24;;;;;;;;;;;;;;;12.31;45.50;99856.34;10273637;28;20359;-79
2022/03/20 11:08:26;;;;;;;;;;;;;;;12.36;47.10;99859.75;10262384;28;19997;-80
2022/03/20 11:13:29;;;;;;;;;;;;;;;12.92;45.46;99858.72;10270356;28;19934;-81
2022/03/20 11:18:34;;;;;;;;;;;;;;;13.00;46.20;99863.44;10260955;28;19931;-80
2022/03/20 11:23:36;;;;;;;;;;;;;;;13.16;43.28;99850.41;10252059;28;20324;-80
2022/03/20 11:28:43;;;;;;;;;;;;;;;13.30;41.85;99845.84;10352349;28;19925;-82
2022/03/20 11:33:46;;;;;;;;;;;;;;;13.24;43.26;99846.25;10356744;28;19934;-79
2022/03/20 11:39:07;;;;;;;;;;;;;;;13.36;41.15;99833.88;10365495;28;19984;-81
2022/03/20 11:44:21;;;;;;;;;;;;;;;13.61;40.16;99832.47;10360923;28;19930;-77
2022/03/20 11:49:23;;;;;;;;;;;;;;;14.00;43.83;99831.06;10364668;28;19930;-77
2022/03/20 11:54:44;;;;;;;;;;;;;;;14.39;42.35;99832.22;10304925;28;19929;-77
2022/03/20 11:59:47;;;;;;;;;;;;;;;14.23;38.57;99829.13;10329009;28;19934;-78
2022/03/20 12:05:02;;;;;;;;;;;;;;;14.46;40.85;99821.81;10348803;28;19944;-77
2022/03/20 12:10:09;;;;;;;;;;;;;;;15.28;40.93;99821.13;10358740;28;19968;-78
2022/03/20 12:15:11;;;;;;;;;;;;;;;15.20;37.38;99819.19;10369039;28;19989;-80
2022/03/20 12:20:12;;;;;;;;;;;;;;;15.32;40.11;99815.88;10331970;28;19914;-79
2022/03/20 12:25:37;;;;;;;;;;;;;;;14.85;39.58;99812.91;10346462;28;19929;-80
2022/03/20 12:30:37;;;;;;;;;;;;;;;15.29;37.56;99803.00;10298437;28;19941;-80
2022/03/20 12:35:45;;;;;;;;;;;;;;;14.79;38.69;99811.44;10322731;28;19946;-78
2022/03/20 12:40:46;;;;;;;;;;;;;;;14.59;38.35;99806.59;10297318;28;19984;-77
2022/03/20 12:45:51;;;;;;;;;;;;;;;14.86;37.39;99808.31;10292729;28;19937;-76
2022/03/20 12:50:55;;;;;;;;;;;;;;;14.98;37.74;99806.56;10316935;28;19933;-78
2022/03/20 12:55:58;;;;;;;;;;;;;;;14.79;37.27;99800.63;10312531;28;19924;-78
2022/03/20 13:00:59;;;;;;;;;;;;;;;15.19;38.83;99792.47;10303520;28;19945;-79
2022/03/20 13:06:00;;;;;;;;;;;;;;;15.85;38.55;99799.34;10302830;28;19964;-78
2022/03/20 13:11:03;;;;;;;;;;;;;;;16.07;35.85;99787.53;10299399;28;19977;-78
2022/03/20 13:16:05;;;;;;;;;;;;;;;16.30;35.88;99795.44;10302233;28;19937;-76
2022/03/20 13:21:07;;;;;;;;;;;;;;;16.78;34.65;99792.41;10291694;28;19930;-78
2022/03/20 13:26:08;;;;;;;;;;;;;;;16.66;33.67;99798.50;10318591;28;19929;-77
2022/03/20 13:31:19;;;;;;;;;;;;;;;17.49;31.94;99789.72;10349618;28;19942;-77
2022/03/20 13:36:21;;;;;;;;;;;;;;;16.49;33.65;99788.53;10344850;28;20014;-78
2022/03/20 13:41:24;;;;;;;;;;;;;;;16.66;34.18;99784.94;10347308;28;22728;-79
2022/03/20 13:46:28;;;;;;;;;;;;;;;16.44;33.52;99783.25;10311584;28;19930;-77
2022/03/20 13:51:30;;;;;;;;;;;;;;;17.64;34.52;99794.53;10319153;28;19953;-77
2022/03/20 13:56:31;;;;;;;;;;;;;;;16.75;35.18;99788.44;10328360;28;20049;-79
2022/03/20 14:01:32;;;;;;;;;;;;;;;16.55;33.77;99791.03;10341325;28;19929;-78
2022/03/20 14:06:36;;;;;;;;;;;;;;;15.82;32.84;99793.78;10346660;28;19937;-78
2022/03/20 14:11:37;;;;;;;;;;;;;;;16.09;34.47;99798.03;10334847;28;19936;-78
2022/03/20 14:16:54;;;;;;;;;;;;;;;15.51;34.83;99786.59;10312732;28;19937;-78
2022/03/20 14:21:55;;;;;;;;;;;;;;;15.49;33.03;99786.13;10331993;28;19941;-76
2022/03/20 14:26:57;;;;;;;;;;;;;;;15.11;37.00;99790.56;10289347;28;19949;-78
2022/03/20 14:42:45;;;;;;;;;;;;;;;14.69;38.09;99782.81;10286336;28;20017;-77
2022/03/20 14:47:47;;;;;;;;;;;;;;;14.78;37.25;99780.13;10283663;28;19934;-79
2022/03/20 14:52:52;;;;;;;;;;;;;;;14.55;36.35;99771.31;10276235;28;19996;-77
2022/03/20 14:57:52;;;;;;;;;;;;;;;14.25;39.10;99781.00;10300529;28;19930;-79
2022/03/20 15:02:53;;;;;;;;;;;;;;;13.86;38.68;99784.41;10289559;28;19933;-78
2022/03/20 15:13:18;;;;;;;;;;;;;;;13.39;39.82;99778.50;10272049;28;19986;-77
2022/03/20 15:18:19;;;;;;;;;;;;;;;13.58;37.83;99789.13;10262530;28;19944;-78
2022/03/20 15:23:19;;;;;;;;;;;;;;;13.45;39.62;99782.69;10278077;28;20405;-78
2022/03/20 15:28:20;;;;;;;;;;;;;;;13.21;39.50;99776.75;10342118;28;19926;-79
2022/03/20 15:33:21;;;;;;;;;;;;;;;13.31;41.99;99779.22;10318375;28;19914;-80
2022/03/20 15:38:21;;;;;;;;;;;;;;;12.91;40.51;99780.88;10329733;28;19929;-80
2022/03/20 15:43:22;;;;;;;;;;;;;;;12.72;41.79;99775.59;10340378;28;19965;-77
2022/03/20 15:48:23;;;;;;;;;;;;;;;12.81;41.70;99782.69;10334289;28;19941;-79
2022/03/20 15:53:43;;;;;;;;;;;;;;;12.62;42.55;99773.91;10328988;28;19929;-78
2022/03/20 15:58:44;;;;;;;;;;;;;;;12.39;41.46;99777.59;10334490;28;19925;-75
2022/03/20 16:03:45;;;;;;;;;;;;;;;12.60;41.98;99781.47;10332889;28;19930;-78
2022/03/20 16:08:46;;;;;;;;;;;;;;;12.46;44.13;99778.00;10313639;28;19933;-79
2022/03/20 16:13:47;;;;;;;;;;;;;;;12.34;41.43;99778.47;10317767;28;19929;-80
2022/03/20 16:18:48;;;;;;;;;;;;;;;12.12;42.19;99775.66;10320950;28;19930;-77
2022/03/20 16:29:08;;;;;;;;;;;;;;;12.09;44.25;99766.28;10276170;28;20337;-76
2022/03/20 16:34:08;;;;;;;;;;;;;;;11.95;43.20;99774.31;10277057;28;19929;-77
2022/03/20 16:39:09;;;;;;;;;;;;;;;11.69;43.07;99776.56;10302920;28;19958;-77
2022/03/20 16:44:09;;;;;;;;;;;;;;;11.64;43.36;99783.94;10324422;28;19936;-78
2022/03/20 16:49:10;;;;;;;;;;;;;;;11.56;43.01;99785.41;10313175;28;20014;-77
2022/03/20 16:54:10;;;;;;;;;;;;;;;11.47;45.17;99780.97;10310696;28;19914;-77
2022/03/20 16:59:12;;;;;;;;;;;;;;;11.19;44.62;99782.72;10309575;28;19936;-76
2022/03/20 17:04:12;;;;;;;;;;;;;;;11.15;47.46;99781.69;10298761;28;19946;-76
2022/03/20 17:09:12;;;;;;;;;;;;;;;10.94;45.12;99783.84;10285884;28;19949;-77
2022/03/20 17:14:13;;;;;;;;;;;;;;;10.70;46.72;99789.25;10301833;28;19997;-77
2022/03/20 17:19:13;;;;;;;;;;;;;;;10.72;47.02;99795.13;10260642;28;19930;-77
2022/03/20 17:24:15;;;;;;;;;;;;;;;10.42;47.87;99798.94;10280503;28;19934;-76
2022/03/20 17:29:16;;;;;;;;;;;;;;;10.21;48.23;99795.63;10328875;28;20664;-77
2022/03/20 17:34:16;;;;;;;;;;;;;;;10.04;49.43;99795.25;10325558;28;20012;-76
2022/03/20 17:39:17;;;;;;;;;;;;;;;9.91;48.84;99794.81;10315722;28;19926;-78
2022/03/20 17:44:18;;;;;;;;;;;;;;;9.74;50.02;99807.81;10319229;28;20405;-80
2022/03/20 17:49:18;;;;;;;;;;;;;;;9.50;52.63;99813.06;10336428;28;20396;-80
2022/03/20 17:54:19;;;;;;;;;;;;;;;9.41;50.87;99814.72;10334533;28;19937;-77
2022/03/20 17:59:27;;;;;;;;;;;;;;;9.13;52.66;99810.88;10314557;28;20013;-77
2022/03/20 18:09:46;;;;;;;;;;;;;;;8.79;53.33;99821.47;10337326;28;20595;-77
2022/03/20 18:14:46;;;;;;;;;;;;;;;8.70;54.68;99825.78;10305182;28;19936;-77
2022/03/20 18:19:47;;;;;;;;;;;;;;;8.66;54.67;99827.38;10326358;28;20005;-77
2022/03/20 18:24:47;;;;;;;;;;;;;;;8.48;56.33;99829.56;10288438;28;19926;-76
2022/03/20 18:29:49;;;;;;;;;;;;;;;8.44;55.90;99827.72;10269599;28;19934;-77
2022/03/20 18:34:49;;;;;;;;;;;;;;;8.42;56.96;99830.66;10271190;28;19936;-77
2022/03/20 18:39:50;;;;;;;;;;;;;;;8.18;58.25;99835.72;10275092;28;19931;-78
2022/03/20 18:44:52;;;;;;;;;;;;;;;8.19;56.83;99848.03;10293632;28;19958;-78
2022/03/20 18:49:55;;;;;;;;;;;;;;;8.05;59.70;99846.97;10297150;28;19930;-78
2022/03/20 18:54:55;;;;;;;;;;;;;;;7.98;58.50;99849.09;10326847;28;19933;-79
2022/03/20 18:59:56;;;;;;;;;;;;;;;8.01;58.51;99851.22;10296804;28;19930;-77
2022/03/20 19:04:56;;;;;;;;;;;;;;;7.78;59.48;99857.91;10299499;28;19936;-79
2022/03/20 19:09:58;;;;;;;;;;;;;;;7.68;60.09;99871.22;10277201;28;19931;-82
2022/03/20 19:15:00;;;;;;;;;;;;;;;7.53;58.03;99871.22;10276804;28;20366;-78
2022/03/20 19:20:01;;;;;;;;;;;;;;;7.55;56.90;99875.22;10264034;28;20030;-76
2022/03/20 19:25:01;;;;;;;;;;;;;;;7.56;55.63;99878.69;10272477;28;19994;-79
2022/03/20 19:30:07;;;;;;;;;;;;;;;7.57;53.00;99880.28;10284776;28;19965;-76
2022/03/20 19:40:27;;;;;;;;;;;;;;;7.45;52.75;99882.41;10304935;28;19941;-79
2022/03/20 19:45:28;;;;;;;;;;;;;;;7.45;51.20;99888.56;10281633;28;19937;-78
2022/03/20 19:50:30;;;;;;;;;;;;;;;7.21;52.68;99893.53;10290098;28;20024;-77
2022/03/20 19:55:34;;;;;;;;;;;;;;;7.17;51.41;99900.47;10294873;28;19930;-78
2022/03/20 20:00:35;;;;;;;;;;;;;;;7.23;50.07;99887.97;10273996;28;19982;-77
2022/03/20 20:05:35;;;;;;;;;;;;;;;7.10;50.79;99889.22;10249699;28;20649;-76
2022/03/20 20:10:36;;;;;;;;;;;;;;;7.03;51.07;99897.44;10266169;28;19930;-77
2022/03/20 20:15:36;;;;;;;;;;;;;;;6.94;52.86;99893.66;10237451;28;19937;-78
2022/03/20 20:20:37;;;;;;;;;;;;;;;6.79;52.23;99902.41;10252438;28;20328;-79
2022/03/20 20:25:37;;;;;;;;;;;;;;;6.70;52.75;99903.16;10330084;28;19914;-80
2022/03/20 20:30:41;;;;;;;;;;;;;;;6.51;52.47;99902.75;10314998;28;19913;-78
2022/03/20 20:35:41;;;;;;;;;;;;;;;6.45;54.49;99904.56;10337254;28;19922;-77
2022/03/20 20:40:43;;;;;;;;;;;;;;;6.37;54.28;99904.25;10299862;28;20397;-78
2022/03/20 20:45:43;;;;;;;;;;;;;;;6.22;55.01;99907.59;10259803;28;19937;-77
2022/03/20 20:50:44;;;;;;;;;;;;;;;6.26;54.05;99906.03;10294407;28;19988;-78
2022/03/20 20:55:44;;;;;;;;;;;;;;;6.08;54.47;99909.88;10279998;28;19973;-76
2022/03/20 21:00:44;;;;;;;;;;;;;;;6.09;54.72;99910.69;10284498;28;19934;-77
2022/03/20 21:05:45;;;;;;;;;;;;;;;5.99;55.18;99903.41;10286609;28;19934;-78
2022/03/20 21:10:58;;;;;;;;;;;;;;;5.99;54.95;99912.19;10255393;28;19980;-78
2022/03/20 21:16:00;;;;;;;;;;;;;;;5.79;55.96;99913.81;10279270;28;19940;-78
2022/03/20 21:21:01;;;;;;;;;;;;;;;5.67;55.69;99909.47;10260930;28;19926;-77
2022/03/20 21:26:01;;;;;;;;;;;;;;;5.56;58.00;99920.22;10300805;28;20655;-77
2022/03/20 21:31:02;;;;;;;;;;;;;;;5.35;57.80;99921.84;10295378;28;20445;-78
2022/03/20 21:36:04;;;;;;;;;;;;;;;5.23;60.52;99932.63;10291211;28;19994;-77
2022/03/20 21:41:04;;;;;;;;;;;;;;;5.11;60.38;99926.59;10297291;28;19933;-76
2022/03/20 21:46:07;;;;;;;;;;;;;;;5.10;63.99;99922.34;10293472;28;19929;-77
2022/03/20 21:51:11;;;;;;;;;;;;;;;5.03;60.10;99924.34;10307789;28;19933;-74
2022/03/20 21:56:13;;;;;;;;;;;;;;;5.02;60.20;99925.41;10273468;28;20325;-77
2022/03/20 22:01:16;;;;;;;;;;;;;;;4.97;60.90;99936.81;10278997;28;19934;-76
2022/03/20 22:06:17;;;;;;;;;;;;;;;4.82;62.30;99934.72;10292188;28;19953;-75
2022/03/20 22:11:18;;;;;;;;;;;;;;;4.73;62.89;99941.50;10288700;28;19924;-77
2022/03/20 22:16:21;;;;;;;;;;;;;;;4.61;66.16;99938.16;10268569;28;20071;-76
2022/03/20 22:21:21;;;;;;;;;;;;;;;4.51;65.10;99928.16;10285642;28;19930;-76
2022/03/20 22:26:22;;;;;;;;;;;;;;;4.42;64.99;99918.97;10288849;28;20389;-76
2022/03/20 22:31:23;;;;;;;;;;;;;;;4.25;69.83;99928.78;10244677;28;19934;-77
2022/03/20 22:41:44;;;;;;;;;;;;;;;4.10;68.76;99925.88;10310345;28;19936;-76
2022/03/20 22:46:46;;;;;;;;;;;;;;;3.98;71.09;99923.28;10310573;28;19930;-77
2022/03/20 22:51:46;;;;;;;;;;;;;;;3.86;73.16;99917.22;10315092;28;19930;-76
2022/03/20 22:56:47;;;;;;;;;;;;;;;3.80;74.00;99918.97;10286556;28;19930;-77
2022/03/20 23:01:48;;;;;;;;;;;;;;;3.82;73.75;99918.72;10294506;28;19937;-76
2022/03/20 23:06:49;;;;;;;;;;;;;;;3.70;69.78;99908.97;10301602;28;20464;-77
2022/03/20 23:11:50;;;;;;;;;;;;;;;3.65;73.48;99916.03;10294642;28;19977;-76
2022/03/20 23:16:51;;;;;;;;;;;;;;;3.60;73.99;99923.91;10290392;28;19972;-77
2022/03/20 23:21:54;;;;;;;;;;;;;;;3.43;74.53;99926.50;10278365;28;19989;-77
2022/03/20 23:26:56;;;;;;;;;;;;;;;3.29;75.97;99923.31;10308499;28;19929;-77
2022/03/20 23:31:57;;;;;;;;;;;;;;;3.15;83.13;99927.25;10289669;28;19997;-77
2022/03/20 23:36:57;;;;;;;;;;;;;;;3.10;79.95;99925.28;10277847;28;20389;-77
2022/03/20 23:47:18;;;;;;;;;;;;;;;2.87;79.30;99920.03;10284855;28;19950;-78
2022/03/20 23:52:20;;;;;;;;;;;;;;;2.82;76.56;99918.06;10276422;28;21292;-78
2022/03/20 23:57:22;;;;;;;;;;;;;;;2.82;77.40;99918.06;10301468;28;19940;-77
